KCMX/CMX METAR and TAF weather

Enter ICAO airport designator
Station Type Date Time Source
KCMX METAR 2018/01/22 19:53 UTC NOAA

KCMX 221953Z AUTO 06010KT 9SM OVC003 M03/M06 A2985 RMK AO2 SLP126 T10331056


Station Type Date Time Source
KCMX Decoded METAR 2018/01/22 19:53 UTC NOAA

HANCOCK HOUGHTON CTY. MEMO, MI, United States (KCMX) 47-10N 088-29W 326M
Jan 22, 2018 - 02:53 PM EST / 2018.01.22 1953 UTC
Wind: from the ENE (060 degrees) at 12 MPH (10 KT):0
Visibility: 9 mile(s):0
Sky conditions: overcast
Temperature: 26.1 F (-3.3 C)
Windchill: 15 F (-9 C):1
Dew Point: 21.9 F (-5.6 C)
Relative Humidity: 84%
Pressure (altimeter): 29.85 in. Hg (1010 hPa)
ob: KCMX 221953Z AUTO 06010KT 9SM OVC003 M03/M06 A2985 RMK AO2 SLP126 T10331056
cycle: 20

Station Type Date Time Source
KCMX TAF 2018/01/22 18:48 UTC NOAA

TAF KCMX 221745Z 2218/2318 06013G20KT P6SM OVC005
FM222300 04012G26KT 2SM -FZDZSN OVC008
FM230900 02013G25KT 3SM -FZDZSN OVC010
FM231100 01015G25KT 4SM -SHSN OVC010
FM231500 01015G25KT P6SM BKN010


Example: see airport list